Time;durP1;ratioP1;P1;durP2;ratioP2;P2;SDS_P1;SDS_P2;PMS_P1;PMS_P2;Temp;Humidity;BMP_temperature;BMP_pressure;BME280_temperature;BME280_humidity;BME280_pressure;Samples;Min_cycle;Max_cycle;Signal;HPM_P1;HPM_P2
2021/10/25 00:02:03;;;;;;;9.90;6.93;;;;;;;;;;5030857;28;20033;-45
2021/10/25 00:04:29;;;;;;;10.73;5.60;;;;;;;;;;5030414;28;20144;-41
2021/10/25 00:06:54;;;;;;;13.73;5.07;;;;;;;;;;5032403;28;20792;-40
2021/10/25 00:09:20;;;;;;;10.10;6.38;;;;;;;;;;5032174;28;20021;-45
2021/10/25 00:11:45;;;;;;;6.82;5.55;;;;;;;;;;5037992;28;20053;-41
2021/10/25 00:14:11;;;;;;;8.23;6.00;;;;;;;;;;5036008;28;20518;-43
2021/10/25 00:16:37;;;;;;;8.55;5.57;;;;;;;;;;5037159;28;20029;-40
2021/10/25 00:19:02;;;;;;;11.07;5.80;;;;;;;;;;5035015;28;20035;-43
2021/10/25 00:21:27;;;;;;;12.32;5.75;;;;;;;;;;5034842;28;20033;-43
2021/10/25 00:23:53;;;;;;;14.45;6.82;;;;;;;;;;5037932;28;20415;-44
2021/10/25 00:26:18;;;;;;;10.40;7.60;;;;;;;;;;5036812;28;20113;-41
2021/10/25 00:28:43;;;;;;;6.85;4.53;;;;;;;;;;5039738;28;20021;-43
2021/10/25 00:31:08;;;;;;;9.57;6.13;;;;;;;;;;5035714;28;20581;-43
2021/10/25 00:33:34;;;;;;;8.48;6.53;;;;;;;;;;5039268;28;20183;-42
2021/10/25 00:35:59;;;;;;;8.88;5.78;;;;;;;;;;5038530;28;20111;-41
2021/10/25 00:38:25;;;;;;;12.30;7.45;;;;;;;;;;5035237;28;20021;-43
2021/10/25 00:40:50;;;;;;;18.75;13.18;;;;;;;;;;5033209;28;20120;-42
2021/10/25 00:43:16;;;;;;;14.93;8.80;;;;;;;;;;5038524;28;20181;-41
2021/10/25 00:45:41;;;;;;;11.50;6.53;;;;;;;;;;5034398;28;20049;-40
2021/10/25 00:48:07;;;;;;;15.68;8.63;;;;;;;;;;5038284;28;20025;-41
2021/10/25 00:50:32;;;;;;;9.18;8.02;;;;;;;;;;5036942;28;20033;-39
2021/10/25 00:52:57;;;;;;;8.00;6.63;;;;;;;;;;5035791;28;20028;-39
2021/10/25 00:55:23;;;;;;;23.70;13.85;;;;;;;;;;5036653;28;20443;-40
2021/10/25 00:57:48;;;;;;;21.25;10.43;;;;;;;;;;5037657;28;20021;-40
2021/10/25 01:00:14;;;;;;;12.40;9.25;;;;;;;;;;5031308;28;20028;-39
2021/10/25 01:02:39;;;;;;;19.25;9.88;;;;;;;;;;5037170;28;20377;-38
2021/10/25 01:05:05;;;;;;;14.35;6.55;;;;;;;;;;5035563;28;20780;-39
2021/10/25 01:07:31;;;;;;;14.45;7.18;;;;;;;;;;5037595;28;20087;-40
2021/10/25 01:09:56;;;;;;;15.38;7.47;;;;;;;;;;5036399;28;20025;-42
2021/10/25 01:12:21;;;;;;;8.43;6.45;;;;;;;;;;5033793;28;20013;-39
2021/10/25 01:14:47;;;;;;;13.88;7.03;;;;;;;;;;5036648;28;20071;-39
2021/10/25 01:17:12;;;;;;;12.32;7.00;;;;;;;;;;5036809;28;20048;-39
2021/10/25 01:19:37;;;;;;;11.38;7.35;;;;;;;;;;5038429;28;20780;-40
2021/10/25 01:22:03;;;;;;;8.35;6.78;;;;;;;;;;5035604;28;20029;-40
2021/10/25 01:24:28;;;;;;;9.48;6.25;;;;;;;;;;5039312;28;20082;-38
2021/10/25 01:26:54;;;;;;;12.25;6.80;;;;;;;;;;5035815;28;20388;-41
2021/10/25 01:29:20;;;;;;;7.50;5.88;;;;;;;;;;5037277;28;20016;-39
2021/10/25 01:31:45;;;;;;;9.60;5.57;;;;;;;;;;5037517;28;20583;-42
2021/10/25 01:34:13;;;;;;;10.85;6.28;;;;;;;;;;5036517;28;20017;-38
2021/10/25 01:36:38;;;;;;;26.38;6.63;;;;;;;;;;5033179;28;20021;-39
2021/10/25 01:39:04;;;;;;;7.50;6.70;;;;;;;;;;5037171;28;20025;-39
2021/10/25 01:41:29;;;;;;;7.70;6.38;;;;;;;;;;5036305;28;20025;-40
2021/10/25 01:43:54;;;;;;;9.05;6.43;;;;;;;;;;5039033;28;20052;-40
2021/10/25 01:46:19;;;;;;;14.20;7.43;;;;;;;;;;5032872;28;20191;-41
2021/10/25 01:48:45;;;;;;;18.33;7.57;;;;;;;;;;5034324;28;20026;-41
2021/10/25 01:51:10;;;;;;;13.98;8.02;;;;;;;;;;5036133;28;20017;-38
2021/10/25 01:53:37;;;;;;;8.82;5.85;;;;;;;;;;5039616;28;20046;-41
2021/10/25 01:56:03;;;;;;;7.70;6.05;;;;;;;;;;5037545;28;20074;-39
2021/10/25 01:58:29;;;;;;;10.55;7.35;;;;;;;;;;5036402;28;20029;-40
2021/10/25 02:00:57;;;;;;;11.43;4.70;;;;;;;;;;5034658;28;20021;-39
2021/10/25 02:03:22;;;;;;;10.05;6.82;;;;;;;;;;5037185;28;20028;-38
2021/10/25 02:05:48;;;;;;;13.15;5.82;;;;;;;;;;5036415;28;20112;-40
2021/10/25 02:08:13;;;;;;;9.02;7.22;;;;;;;;;;5035905;28;20423;-38
2021/10/25 02:10:38;;;;;;;10.00;7.97;;;;;;;;;;5036066;28;20013;-39
2021/10/25 02:13:04;;;;;;;9.90;7.18;;;;;;;;;;5034619;28;20104;-39
2021/10/25 02:15:29;;;;;;;11.77;6.40;;;;;;;;;;5037729;28;20475;-39
2021/10/25 02:17:55;;;;;;;11.32;7.53;;;;;;;;;;5035690;28;20616;-39
2021/10/25 02:20:21;;;;;;;11.75;8.73;;;;;;;;;;5032699;28;20032;-41
2021/10/25 02:22:47;;;;;;;6.30;5.05;;;;;;;;;;5034676;28;20495;-41
2021/10/25 02:25:12;;;;;;;6.97;5.40;;;;;;;;;;5034442;28;20028;-40
2021/10/25 02:27:38;;;;;;;13.05;7.47;;;;;;;;;;5036999;28;20044;-39
2021/10/25 02:30:04;;;;;;;7.13;5.65;;;;;;;;;;5038642;28;20025;-41
2021/10/25 02:32:30;;;;;;;11.65;7.00;;;;;;;;;;5034551;28;20071;-39
2021/10/25 02:34:56;;;;;;;11.13;8.23;;;;;;;;;;5034041;28;20104;-39
2021/10/25 02:37:22;;;;;;;12.18;9.20;;;;;;;;;;5035276;28;20119;-40
2021/10/25 02:39:47;;;;;;;9.55;7.15;;;;;;;;;;5035958;28;20404;-40
2021/10/25 02:42:12;;;;;;;6.28;5.68;;;;;;;;;;5035757;28;20108;-39
2021/10/25 02:44:38;;;;;;;10.07;5.82;;;;;;;;;;5035824;28;20112;-39
2021/10/25 02:47:04;;;;;;;8.30;5.97;;;;;;;;;;5034854;28;20133;-39
2021/10/25 02:49:29;;;;;;;12.20;5.47;;;;;;;;;;5033198;28;20026;-39
2021/10/25 02:51:55;;;;;;;7.50;5.40;;;;;;;;;;5033790;28;20045;-39
2021/10/25 02:54:20;;;;;;;7.43;4.78;;;;;;;;;;5033510;28;20043;-39
2021/10/25 02:56:45;;;;;;;5.25;4.75;;;;;;;;;;5034426;28;20043;-39
2021/10/25 02:59:11;;;;;;;4.80;4.28;;;;;;;;;;5034710;28;20025;-39
2021/10/25 03:01:37;;;;;;;8.05;5.47;;;;;;;;;;5035146;28;20025;-43
2021/10/25 03:04:03;;;;;;;7.45;4.88;;;;;;;;;;5033847;28;20099;-41
2021/10/25 03:06:29;;;;;;;11.50;5.15;;;;;;;;;;5033647;28;20025;-41
2021/10/25 03:08:54;;;;;;;14.23;7.65;;;;;;;;;;5032044;28;20067;-39
2021/10/25 03:11:19;;;;;;;8.07;6.85;;;;;;;;;;5034605;28;20013;-41
2021/10/25 03:13:45;;;;;;;10.40;6.90;;;;;;;;;;5035219;28;20032;-39
2021/10/25 03:16:11;;;;;;;14.57;5.88;;;;;;;;;;5034844;28;20056;-39
2021/10/25 03:18:37;;;;;;;21.63;8.20;;;;;;;;;;5033330;28;20735;-39
2021/10/25 03:21:02;;;;;;;6.93;5.05;;;;;;;;;;5032114;28;20021;-39
2021/10/25 03:23:27;;;;;;;9.60;5.60;;;;;;;;;;5034460;28;20033;-38
2021/10/25 03:25:52;;;;;;;24.27;8.90;;;;;;;;;;5037286;28;20021;-40
2021/10/25 03:28:18;;;;;;;9.43;6.72;;;;;;;;;;5035738;28;20037;-45
2021/10/25 03:30:43;;;;;;;8.90;4.40;;;;;;;;;;5036998;28;20024;-40
2021/10/25 03:33:09;;;;;;;7.65;6.72;;;;;;;;;;5033482;28;20013;-38
2021/10/25 03:35:35;;;;;;;8.00;4.70;;;;;;;;;;5038075;28;20622;-39
2021/10/25 03:38:00;;;;;;;6.65;3.88;;;;;;;;;;5031276;28;20023;-39
2021/10/25 03:40:27;;;;;;;5.60;3.95;;;;;;;;;;5033703;28;20025;-38
2021/10/25 03:42:55;;;;;;;7.90;6.97;;;;;;;;;;5036764;28;20018;-39
2021/10/25 03:45:42;;;;;;;13.23;5.93;;;;;;;;;;5035494;28;20053;-41
2021/10/25 03:48:20;;;;;;;8.27;4.93;;;;;;;;;;5039937;28;20029;-39
2021/10/25 03:50:49;;;;;;;12.23;6.45;;;;;;;;;;5040284;28;20555;-38
2021/10/25 03:53:41;;;;;;;6.35;5.30;;;;;;;;;;5039240;28;20623;-41
2021/10/25 04:30:09;;;;;;;6.57;5.10;;;;;;;;;;5038970;28;20021;-39
2021/10/25 04:32:34;;;;;;;8.23;4.65;;;;;;;;;;5041299;28;20744;-39
2021/10/25 04:34:59;;;;;;;5.38;4.47;;;;;;;;;;5039011;28;20477;-40
2021/10/25 04:37:25;;;;;;;5.25;3.85;;;;;;;;;;5039792;28;20016;-39
2021/10/25 04:39:50;;;;;;;5.03;4.13;;;;;;;;;;5036543;28;20067;-43
2021/10/25 04:42:20;;;;;;;11.27;4.93;;;;;;;;;;5036278;28;20032;-44
2021/10/25 04:44:46;;;;;;;10.05;4.43;;;;;;;;;;5035952;28;20033;-41
2021/10/25 04:47:11;;;;;;;9.68;5.05;;;;;;;;;;5037486;28;20026;-41
2021/10/25 04:49:36;;;;;;;7.00;5.28;;;;;;;;;;5037629;28;20020;-43
2021/10/25 04:52:03;;;;;;;10.00;4.75;;;;;;;;;;5039194;28;20507;-41
2021/10/25 04:54:28;;;;;;;9.40;6.25;;;;;;;;;;5037593;28;20020;-44
2021/10/25 04:56:54;;;;;;;5.80;3.85;;;;;;;;;;5037683;28;20436;-42
2021/10/25 04:59:19;;;;;;;8.00;5.53;;;;;;;;;;5039582;28;20504;-40
2021/10/25 05:01:44;;;;;;;5.97;4.70;;;;;;;;;;5039916;28;20103;-39
2021/10/25 05:04:10;;;;;;;6.78;5.03;;;;;;;;;;5040164;28;20032;-40
2021/10/25 05:06:35;;;;;;;12.63;5.63;;;;;;;;;;5037997;28;20480;-43
2021/10/25 05:09:00;;;;;;;10.38;8.68;;;;;;;;;;5040149;28;20404;-41
2021/10/25 05:11:25;;;;;;;8.10;5.72;;;;;;;;;;5037103;28;20114;-41
2021/10/25 05:13:51;;;;;;;7.90;4.82;;;;;;;;;;5036272;28;20144;-39
2021/10/25 05:16:16;;;;;;;6.28;4.53;;;;;;;;;;5038422;28;20112;-45
2021/10/25 05:18:42;;;;;;;6.13;4.55;;;;;;;;;;5038879;28;20037;-43
2021/10/25 05:21:07;;;;;;;11.00;5.13;;;;;;;;;;5035944;28;20754;-40
2021/10/25 05:23:32;;;;;;;11.82;5.43;;;;;;;;;;5042143;28;20170;-43
2021/10/25 05:25:58;;;;;;;6.75;4.53;;;;;;;;;;5034934;28;20446;-42
2021/10/25 05:28:23;;;;;;;6.18;3.90;;;;;;;;;;5038309;28;20288;-44
2021/10/25 05:30:49;;;;;;;6.05;5.07;;;;;;;;;;5038845;28;20414;-40
2021/10/25 05:33:14;;;;;;;11.32;5.60;;;;;;;;;;5040064;28;20029;-43
2021/10/25 05:35:39;;;;;;;8.90;4.32;;;;;;;;;;5037165;28;20025;-47
2021/10/25 05:38:05;;;;;;;10.35;6.53;;;;;;;;;;5034276;28;20022;-45
2021/10/25 05:40:31;;;;;;;9.20;5.65;;;;;;;;;;5035708;28;20029;-41
2021/10/25 05:42:57;;;;;;;8.02;4.60;;;;;;;;;;5036938;28;20060;-47
2021/10/25 05:45:22;;;;;;;18.30;4.90;;;;;;;;;;5036005;28;20512;-45
2021/10/25 05:47:48;;;;;;;21.35;5.82;;;;;;;;;;5035558;28;20568;-43
2021/10/25 05:50:14;;;;;;;6.80;5.32;;;;;;;;;;5036512;28;20027;-43
2021/10/25 05:52:39;;;;;;;24.55;6.57;;;;;;;;;;5035394;28;20029;-42
2021/10/25 05:55:05;;;;;;;15.18;6.00;;;;;;;;;;5035256;28;20053;-41
2021/10/25 05:57:31;;;;;;;12.05;4.35;;;;;;;;;;5037196;28;20017;-39
2021/10/25 05:59:56;;;;;;;9.98;6.15;;;;;;;;;;5036210;28;20083;-41
2021/10/25 06:04:47;;;;;;;6.63;4.53;;;;;;;;;;5037420;28;20416;-43
2021/10/25 06:07:12;;;;;;;12.90;6.70;;;;;;;;;;5038372;28;20511;-44
2021/10/25 06:09:37;;;;;;;10.90;6.50;;;;;;;;;;5040146;28;20029;-45
2021/10/25 06:12:07;;;;;;;9.35;5.72;;;;;;;;;;5040195;28;20696;-44
2021/10/25 06:14:37;;;;;;;7.53;5.50;;;;;;;;;;5036638;28;20014;-40
2021/10/25 06:17:08;;;;;;;7.00;5.47;;;;;;;;;;5035804;28;20129;-42
2021/10/25 06:19:33;;;;;;;18.42;6.80;;;;;;;;;;5035028;28;20025;-42
2021/10/25 06:21:58;;;;;;;9.52;5.90;;;;;;;;;;5038292;28;20056;-41
2021/10/25 06:24:24;;;;;;;8.10;7.32;;;;;;;;;;5035592;28;20053;-43
2021/10/25 06:26:49;;;;;;;12.23;7.40;;;;;;;;;;5037275;28;20022;-38
2021/10/25 06:29:14;;;;;;;7.15;6.30;;;;;;;;;;5033357;28;20055;-38
2021/10/25 06:31:41;;;;;;;7.80;5.32;;;;;;;;;;5039674;28;20025;-46
2021/10/25 06:34:19;;;;;;;9.05;5.43;;;;;;;;;;5033269;28;20112;-42
2021/10/25 06:36:48;;;;;;;15.38;8.02;;;;;;;;;;5033321;28;20018;-41
2021/10/25 06:39:20;;;;;;;10.52;7.70;;;;;;;;;;5034471;28;20036;-42
2021/10/25 06:41:45;;;;;;;13.18;9.48;;;;;;;;;;5035359;28;20036;-41
2021/10/25 06:44:10;;;;;;;15.93;8.20;;;;;;;;;;5033733;28;20029;-44
2021/10/25 06:46:39;;;;;;;9.98;7.22;;;;;;;;;;5032499;28;20261;-41
2021/10/25 06:49:04;;;;;;;33.10;11.60;;;;;;;;;;5033346;28;20037;-41
2021/10/25 06:51:30;;;;;;;50.97;15.18;;;;;;;;;;5036008;28;20021;-40
2021/10/25 06:53:55;;;;;;;25.80;14.23;;;;;;;;;;5031901;28;20469;-40
2021/10/25 06:56:21;;;;;;;14.93;11.27;;;;;;;;;;5031732;28;20063;-43
2021/10/25 06:58:46;;;;;;;13.57;9.50;;;;;;;;;;5033792;28;20665;-40
2021/10/25 07:01:11;;;;;;;14.48;9.77;;;;;;;;;;5033037;28;20100;-43
2021/10/25 07:03:37;;;;;;;16.90;6.07;;;;;;;;;;5031332;28;20080;-44
2021/10/25 07:06:03;;;;;;;9.55;7.90;;;;;;;;;;5035517;28;20104;-40
2021/10/25 07:08:31;;;;;;;15.15;7.65;;;;;;;;;;5036871;28;20120;-41
2021/10/25 07:10:56;;;;;;;10.38;8.20;;;;;;;;;;5035990;28;20115;-42
2021/10/25 07:13:22;;;;;;;11.13;8.20;;;;;;;;;;5034589;28;20525;-43
2021/10/25 07:15:59;;;;;;;16.50;11.10;;;;;;;;;;5033209;28;20053;-40
2021/10/25 07:18:31;;;;;;;10.55;8.50;;;;;;;;;;5035708;28;20053;-43
2021/10/25 08:11:53;;;;;;;25.70;23.40;;;;;;;;;;5033714;28;20063;-56
2021/10/25 08:14:18;;;;;;;35.25;21.40;;;;;;;;;;5035087;28;20071;-52
2021/10/25 08:16:55;;;;;;;28.15;25.27;;;;;;;;;;5034523;28;20028;-48
2021/10/25 08:19:27;;;;;;;75.22;66.63;;;;;;;;;;5037794;28;20025;-50
2021/10/25 08:22:01;;;;;;;68.38;61.22;;;;;;;;;;5035551;28;20433;-51
2021/10/25 08:24:28;;;;;;;69.82;43.17;;;;;;;;;;5035291;28;20481;-57
2021/10/25 08:26:54;;;;;;;46.90;42.30;;;;;;;;;;5036899;28;20023;-55
2021/10/25 08:29:20;;;;;;;38.15;27.38;;;;;;;;;;5038333;28;20033;-56
2021/10/25 08:31:53;;;;;;;23.55;21.10;;;;;;;;;;5038264;28;20389;-52
2021/10/25 08:42:11;;;;;;;49.40;44.20;;;;;;;;;;5040910;28;20079;-46
2021/10/25 08:44:37;;;;;;;27.30;20.27;;;;;;;;;;5036500;28;20021;-52
2021/10/25 08:47:03;;;;;;;22.33;16.98;;;;;;;;;;5038098;28;20127;-47
2021/10/25 08:49:30;;;;;;;11.35;9.50;;;;;;;;;;5034704;28;20125;-52
2021/10/25 08:51:55;;;;;;;16.67;14.95;;;;;;;;;;5039512;28;20027;-51
2021/10/25 08:54:21;;;;;;;55.40;46.53;;;;;;;;;;5035814;28;20570;-47
2021/10/25 08:56:46;;;;;;;22.70;20.50;;;;;;;;;;5045413;28;20024;-45
2021/10/25 08:59:11;;;;;;;22.15;12.60;;;;;;;;;;5038362;28;20450;-44
2021/10/25 09:01:37;;;;;;;16.25;11.95;;;;;;;;;;5037484;28;20512;-48
2021/10/25 09:04:03;;;;;;;20.70;15.43;;;;;;;;;;5037233;28;20021;-44
2021/10/25 09:06:28;;;;;;;21.23;12.85;;;;;;;;;;5036033;28;20087;-47
2021/10/25 09:08:58;;;;;;;11.23;9.85;;;;;;;;;;5037547;28;20021;-44
2021/10/25 09:11:23;;;;;;;11.95;9.32;;;;;;;;;;5036974;28;20017;-50
2021/10/25 09:13:48;;;;;;;12.20;11.05;;;;;;;;;;5037720;28;20754;-44
2021/10/25 09:16:14;;;;;;;13.70;9.63;;;;;;;;;;5036144;28;20029;-49
2021/10/25 09:18:40;;;;;;;36.60;22.55;;;;;;;;;;5037530;28;20457;-47
2021/10/25 09:21:09;;;;;;;31.50;21.80;;;;;;;;;;5039838;28;20077;-46
2021/10/25 09:23:40;;;;;;;29.50;15.40;;;;;;;;;;5036334;28;20038;-42
2021/10/25 09:26:08;;;;;;;74.70;23.55;;;;;;;;;;5035108;28;20596;-47
2021/10/25 09:28:35;;;;;;;64.53;27.48;;;;;;;;;;5035627;28;20158;-45
2021/10/25 09:31:02;;;;;;;43.33;25.13;;;;;;;;;;5037435;28;20029;-46
2021/10/25 09:33:39;;;;;;;43.13;20.05;;;;;;;;;;5039760;28;20543;-44
2021/10/25 09:36:08;;;;;;;29.27;12.68;;;;;;;;;;5036916;28;20641;-45
2021/10/25 09:41:49;;;;;;;39.33;21.92;;;;;;;;;;5036559;28;20032;-49
2021/10/25 09:49:46;;;;;;;19.05;14.77;;;;;;;;;;5037850;28;20036;-48
2021/10/25 09:52:12;;;;;;;21.92;19.08;;;;;;;;;;5039357;28;20025;-50
2021/10/25 09:54:38;;;;;;;29.33;21.65;;;;;;;;;;5037182;28;20098;-45
2021/10/25 09:57:23;;;;;;;31.05;19.90;;;;;;;;;;5038120;28;20024;-48
2021/10/25 09:59:50;;;;;;;40.83;17.75;;;;;;;;;;5036913;28;20024;-44
2021/10/25 10:02:16;;;;;;;28.60;17.70;;;;;;;;;;5036299;28;20048;-47
2021/10/25 10:04:44;;;;;;;14.70;12.60;;;;;;;;;;5035694;28;20064;-48
2021/10/25 10:07:15;;;;;;;17.70;13.82;;;;;;;;;;5034662;28;20938;-51
2021/10/25 10:09:41;;;;;;;14.93;12.88;;;;;;;;;;5041124;28;20025;-48
2021/10/25 10:12:07;;;;;;;19.50;12.95;;;;;;;;;;5036585;28;20097;-50
2021/10/25 10:14:33;;;;;;;17.13;12.13;;;;;;;;;;5035618;28;20017;-47
2021/10/25 10:16:59;;;;;;;12.02;10.85;;;;;;;;;;5036506;28;20010;-49
2021/10/25 10:19:25;;;;;;;20.02;13.27;;;;;;;;;;5035049;28;20025;-45
2021/10/25 10:21:54;;;;;;;20.30;13.93;;;;;;;;;;5036021;28;20030;-51
2021/10/25 10:24:24;;;;;;;15.52;12.80;;;;;;;;;;5036906;28;20035;-50
2021/10/25 10:26:54;;;;;;;10.53;8.83;;;;;;;;;;5036110;28;20222;-48
2021/10/25 10:29:20;;;;;;;18.33;11.23;;;;;;;;;;5033759;28;20321;-50
2021/10/25 10:31:56;;;;;;;16.55;9.38;;;;;;;;;;5036629;28;20053;-47
2021/10/25 10:34:21;;;;;;;11.05;8.98;;;;;;;;;;5037565;28;20021;-49
2021/10/25 10:36:53;;;;;;;12.15;10.82;;;;;;;;;;5033314;28;20051;-49
2021/10/25 10:39:19;;;;;;;12.23;7.78;;;;;;;;;;5035656;28;20714;-49
2021/10/25 10:41:44;;;;;;;10.25;7.15;;;;;;;;;;5036496;28;20017;-49
2021/10/25 10:44:10;;;;;;;7.10;6.43;;;;;;;;;;5035624;28;20515;-51
2021/10/25 10:46:39;;;;;;;16.27;8.32;;;;;;;;;;5033927;28;20041;-46
2021/10/25 10:49:04;;;;;;;10.40;7.32;;;;;;;;;;5037287;28;20029;-45
2021/10/25 10:51:30;;;;;;;10.43;8.32;;;;;;;;;;5033933;28;20074;-48
2021/10/25 10:54:02;;;;;;;13.95;8.70;;;;;;;;;;5037326;28;20112;-48
2021/10/25 10:56:37;;;;;;;17.30;9.73;;;;;;;;;;5036264;28;20306;-46
2021/10/25 11:01:31;;;;;;;11.68;10.45;;;;;;;;;;5036594;28;20117;-49
2021/10/25 11:03:57;;;;;;;22.92;14.82;;;;;;;;;;5034921;28;20064;-49
2021/10/25 11:06:28;;;;;;;30.75;13.82;;;;;;;;;;5033779;28;20547;-48
2021/10/25 11:08:55;;;;;;;13.30;10.43;;;;;;;;;;5031197;28;20436;-47
2021/10/25 11:11:21;;;;;;;16.48;11.95;;;;;;;;;;5034254;28;20036;-49
2021/10/25 11:13:51;;;;;;;19.92;12.77;;;;;;;;;;5033925;28;20067;-46
2021/10/25 11:16:23;;;;;;;14.52;10.75;;;;;;;;;;5033620;28;20025;-49
2021/10/25 11:18:49;;;;;;;12.60;10.95;;;;;;;;;;5034407;28;20022;-48
2021/10/25 11:21:24;;;;;;;16.98;8.55;;;;;;;;;;5033780;28;20449;-45
2021/10/25 11:23:51;;;;;;;14.95;8.75;;;;;;;;;;5030887;28;20122;-46
2021/10/25 11:26:37;;;;;;;12.55;11.20;;;;;;;;;;5034370;28;20022;-47
2021/10/25 11:29:08;;;;;;;16.15;11.63;;;;;;;;;;5030870;28;20044;-48
2021/10/25 11:31:43;;;;;;;20.42;14.13;;;;;;;;;;5036381;28;20013;-45
2021/10/25 11:34:10;;;;;;;39.65;20.38;;;;;;;;;;5034345;28;20051;-46
2021/10/25 11:36:36;;;;;;;29.48;19.05;;;;;;;;;;5034730;28;20025;-46
2021/10/25 11:39:08;;;;;;;17.90;15.98;;;;;;;;;;5031734;28;20417;-49
2021/10/25 11:41:44;;;;;;;17.10;11.82;;;;;;;;;;5032900;28;20032;-48
2021/10/25 11:44:13;;;;;;;8.60;5.25;;;;;;;;;;5034737;28;20108;-48
2021/10/25 11:46:39;;;;;;;6.30;5.32;;;;;;;;;;5035356;28;20080;-47
2021/10/25 11:49:04;;;;;;;8.80;6.60;;;;;;;;;;5036400;28;20048;-47
2021/10/25 11:51:29;;;;;;;14.75;7.18;;;;;;;;;;5035181;28;20598;-46
2021/10/25 11:53:56;;;;;;;27.42;18.20;;;;;;;;;;5034800;28;20556;-47
2021/10/25 11:56:21;;;;;;;9.85;8.38;;;;;;;;;;5037024;28;20190;-47
2021/10/25 11:58:46;;;;;;;11.15;7.32;;;;;;;;;;5034112;28;20401;-49
2021/10/25 12:01:13;;;;;;;11.23;7.65;;;;;;;;;;5035818;28;20036;-51
2021/10/25 12:03:39;;;;;;;9.93;6.03;;;;;;;;;;5035108;28;20028;-51
2021/10/25 12:06:11;;;;;;;9.85;6.80;;;;;;;;;;5035959;28;20025;-47
2021/10/25 12:08:37;;;;;;;13.43;6.85;;;;;;;;;;5041799;28;20018;-43
2021/10/25 12:11:03;;;;;;;10.20;8.40;;;;;;;;;;5034919;28;20032;-43
2021/10/25 12:13:28;;;;;;;13.25;8.88;;;;;;;;;;5039022;28;20023;-46
2021/10/25 12:15:58;;;;;;;10.85;7.32;;;;;;;;;;5036980;28;20027;-46
2021/10/25 12:18:27;;;;;;;11.68;8.15;;;;;;;;;;5035000;28;20053;-45
2021/10/25 12:20:52;;;;;;;16.13;8.45;;;;;;;;;;5035851;28;20575;-45
2021/10/25 12:23:19;;;;;;;9.63;8.02;;;;;;;;;;5039903;28;20028;-47
2021/10/25 12:25:52;;;;;;;10.38;7.75;;;;;;;;;;5039532;28;20013;-47
2021/10/25 12:28:19;;;;;;;8.63;6.95;;;;;;;;;;5037597;28;20481;-46
2021/10/25 12:30:45;;;;;;;11.65;8.98;;;;;;;;;;5040955;28;20022;-49
2021/10/25 12:33:12;;;;;;;11.98;8.25;;;;;;;;;;5038438;28;20477;-48
2021/10/25 12:35:45;;;;;;;17.48;9.15;;;;;;;;;;5032901;28;20028;-46
2021/10/25 12:38:17;;;;;;;11.88;7.03;;;;;;;;;;5037222;28;20120;-48
2021/10/25 12:40:46;;;;;;;16.38;8.93;;;;;;;;;;5041019;28;20021;-44
2021/10/25 12:43:11;;;;;;;7.85;7.05;;;;;;;;;;5040830;28;20119;-46
2021/10/25 12:45:44;;;;;;;9.75;6.97;;;;;;;;;;5033943;28;20057;-46
2021/10/25 12:48:13;;;;;;;12.88;6.45;;;;;;;;;;5038837;28;20029;-48
2021/10/25 12:50:40;;;;;;;10.55;5.38;;;;;;;;;;5033787;28;20025;-46
2021/10/25 12:53:06;;;;;;;10.27;4.68;;;;;;;;;;5038662;28;20021;-46
2021/10/25 12:55:32;;;;;;;6.13;3.95;;;;;;;;;;5037164;28;20044;-50
2021/10/25 12:57:58;;;;;;;5.80;4.65;;;;;;;;;;5037168;28;20093;-44
2021/10/25 13:00:24;;;;;;;14.63;4.95;;;;;;;;;;5036403;28;20036;-45
2021/10/25 13:02:53;;;;;;;8.45;5.50;;;;;;;;;;5037163;28;20604;-47
2021/10/25 13:05:20;;;;;;;4.47;4.07;;;;;;;;;;5039604;28;20021;-46
2021/10/25 13:07:46;;;;;;;11.25;5.75;;;;;;;;;;5038107;28;20039;-48
2021/10/25 13:10:11;;;;;;;7.78;4.60;;;;;;;;;;5037540;28;20060;-50
2021/10/25 13:12:37;;;;;;;10.65;5.35;;;;;;;;;;5040958;28;20041;-52
2021/10/25 13:15:02;;;;;;;8.07;6.30;;;;;;;;;;5041421;28;20519;-48
2021/10/25 13:17:28;;;;;;;12.48;7.05;;;;;;;;;;5038396;28;20032;-51
2021/10/25 13:19:53;;;;;;;11.05;6.55;;;;;;;;;;5037427;28;20033;-47
2021/10/25 13:22:19;;;;;;;6.28;5.63;;;;;;;;;;5036661;28;20418;-50
2021/10/25 13:24:44;;;;;;;10.70;5.78;;;;;;;;;;5036474;28;20565;-45
2021/10/25 13:27:09;;;;;;;8.85;5.13;;;;;;;;;;5036304;28;20168;-45
2021/10/25 13:29:35;;;;;;;4.88;3.25;;;;;;;;;;5039324;28;20025;-46
2021/10/25 13:32:00;;;;;;;6.10;4.93;;;;;;;;;;5039184;28;20078;-45
2021/10/25 13:34:25;;;;;;;8.98;5.20;;;;;;;;;;5038144;28;20414;-51
2021/10/25 13:36:51;;;;;;;6.55;5.25;;;;;;;;;;5035851;28;20111;-45
2021/10/25 13:39:18;;;;;;;5.65;4.35;;;;;;;;;;5038750;28;20074;-49
2021/10/25 13:41:44;;;;;;;15.73;9.23;;;;;;;;;;5036650;28;20085;-46
2021/10/25 13:44:09;;;;;;;10.93;3.47;;;;;;;;;;5035171;28;20492;-51
2021/10/25 13:46:34;;;;;;;10.45;4.70;;;;;;;;;;5034266;28;20067;-50
2021/10/25 13:49:00;;;;;;;11.00;4.82;;;;;;;;;;5032778;28;20742;-60
2021/10/25 13:51:25;;;;;;;10.55;5.20;;;;;;;;;;5035933;28;20049;-60
2021/10/25 13:53:51;;;;;;;6.50;4.93;;;;;;;;;;5036092;28;20025;-60
2021/10/25 13:56:18;;;;;;;8.40;6.30;;;;;;;;;;5036327;28;20028;-60
2021/10/25 13:58:44;;;;;;;8.55;6.78;;;;;;;;;;5036767;28;20131;-61
2021/10/25 14:01:10;;;;;;;10.60;4.63;;;;;;;;;;5037952;28;20037;-60
2021/10/25 14:03:37;;;;;;;5.63;4.30;;;;;;;;;;5036406;28;20779;-60
2021/10/25 14:06:08;;;;;;;8.23;4.72;;;;;;;;;;5036332;28;20033;-60
2021/10/25 14:08:33;;;;;;;13.82;5.90;;;;;;;;;;5037009;28;20032;-58
2021/10/25 14:10:58;;;;;;;5.32;3.17;;;;;;;;;;5036806;28;20022;-59
2021/10/25 14:13:39;;;;;;;5.63;3.50;;;;;;;;;;5034124;28;20013;-58
2021/10/25 14:18:45;;;;;;;3.42;2.25;;;;;;;;;;5036454;28;20103;-59
2021/10/25 14:21:15;;;;;;;9.52;4.70;;;;;;;;;;5037387;28;20075;-58
2021/10/25 14:23:40;;;;;;;7.43;4.30;;;;;;;;;;5038097;28;20153;-51
2021/10/25 14:26:05;;;;;;;8.13;3.88;;;;;;;;;;5035457;28;20567;-51
2021/10/25 14:28:31;;;;;;;13.05;4.85;;;;;;;;;;5037008;28;20759;-53
2021/10/25 14:30:57;;;;;;;7.38;3.55;;;;;;;;;;5036760;28;20021;-48
2021/10/25 14:33:23;;;;;;;11.68;4.10;;;;;;;;;;5036245;28;20055;-49
2021/10/25 14:35:48;;;;;;;6.88;5.10;;;;;;;;;;5032810;28;20028;-50
2021/10/25 14:38:26;;;;;;;5.80;4.15;;;;;;;;;;5033877;28;20100;-51
2021/10/25 14:41:04;;;;;;;9.48;4.47;;;;;;;;;;5036952;28;20024;-48
2021/10/25 14:43:36;;;;;;;4.18;3.40;;;;;;;;;;5037084;28;20376;-50
2021/10/25 14:46:11;;;;;;;5.68;3.42;;;;;;;;;;5034770;28;20051;-51
2021/10/25 14:53:55;;;;;;;10.55;4.90;;;;;;;;;;5037378;28;20094;-51
2021/10/25 14:56:21;;;;;;;7.07;4.43;;;;;;;;;;5035526;28;20081;-55
2021/10/25 14:58:46;;;;;;;4.40;2.60;;;;;;;;;;5035065;28;20079;-51
2021/10/25 15:01:12;;;;;;;4.38;2.80;;;;;;;;;;5036849;28;20020;-54
2021/10/25 15:03:37;;;;;;;3.83;3.15;;;;;;;;;;5035809;28;20095;-52
2021/10/25 15:06:03;;;;;;;6.82;4.57;;;;;;;;;;5033349;28;20020;-52
2021/10/25 15:08:28;;;;;;;9.23;3.95;;;;;;;;;;5038001;28;20013;-54
2021/10/25 15:10:54;;;;;;;3.72;3.30;;;;;;;;;;5035539;28;20112;-53
2021/10/25 15:13:20;;;;;;;9.20;5.88;;;;;;;;;;5034755;28;20122;-53
2021/10/25 15:15:45;;;;;;;16.83;4.43;;;;;;;;;;5034404;28;20061;-52
2021/10/25 15:18:11;;;;;;;4.35;3.42;;;;;;;;;;5034185;28;20055;-51
2021/10/25 15:20:37;;;;;;;10.88;4.80;;;;;;;;;;5034652;28;20025;-52
2021/10/25 15:23:03;;;;;;;5.60;4.35;;;;;;;;;;5032047;28;20113;-50
2021/10/25 15:25:34;;;;;;;10.80;5.88;;;;;;;;;;5029175;28;20057;-52
2021/10/25 15:28:01;;;;;;;6.22;4.43;;;;;;;;;;5030859;28;20645;-49
2021/10/25 15:30:26;;;;;;;12.93;11.38;;;;;;;;;;5035820;28;20023;-52
2021/10/25 15:32:52;;;;;;;8.50;6.00;;;;;;;;;;5034170;28;20403;-52
2021/10/25 15:35:18;;;;;;;16.05;5.00;;;;;;;;;;5035314;28;20153;-46
2021/10/25 15:37:43;;;;;;;7.30;3.30;;;;;;;;;;5035177;28;20021;-50
2021/10/25 15:40:09;;;;;;;14.73;3.92;;;;;;;;;;5034595;28;20424;-52
2021/10/25 15:42:36;;;;;;;12.45;4.78;;;;;;;;;;5037800;28;20051;-51
2021/10/25 15:45:02;;;;;;;4.82;4.18;;;;;;;;;;5035935;28;20057;-47
2021/10/25 15:47:29;;;;;;;14.93;8.02;;;;;;;;;;5038290;28;20492;-49
2021/10/25 15:49:54;;;;;;;5.68;5.13;;;;;;;;;;5039441;28;20029;-54
2021/10/25 15:52:21;;;;;;;7.03;4.75;;;;;;;;;;5039835;28;20036;-52
2021/10/25 15:54:47;;;;;;;14.18;4.38;;;;;;;;;;5038625;28;20013;-49
2021/10/25 15:57:14;;;;;;;7.72;3.95;;;;;;;;;;5040529;28;20103;-49
2021/10/25 15:59:40;;;;;;;11.55;4.82;;;;;;;;;;5040274;28;20083;-52
2021/10/25 16:02:06;;;;;;;4.70;3.35;;;;;;;;;;5040368;28;20025;-55
2021/10/25 16:04:32;;;;;;;7.43;4.40;;;;;;;;;;5041992;28;20025;-50
2021/10/25 16:06:57;;;;;;;5.43;3.78;;;;;;;;;;5038268;28;20036;-53
2021/10/25 16:09:23;;;;;;;19.55;4.97;;;;;;;;;;5037183;28;20485;-50
2021/10/25 16:11:50;;;;;;;12.95;5.50;;;;;;;;;;5040887;28;20431;-49
2021/10/25 16:14:15;;;;;;;14.80;6.88;;;;;;;;;;5041538;28;20108;-51
2021/10/25 16:16:41;;;;;;;9.60;7.93;;;;;;;;;;5041022;28;20105;-52
2021/10/25 16:19:06;;;;;;;6.00;4.93;;;;;;;;;;5041317;28;20025;-46
2021/10/25 16:21:35;;;;;;;17.38;5.65;;;;;;;;;;5041275;28;20025;-50
2021/10/25 16:24:01;;;;;;;9.57;5.18;;;;;;;;;;5038297;28;20032;-51
2021/10/25 16:26:26;;;;;;;5.63;4.43;;;;;;;;;;5039443;28;20108;-55